sensor_id;sensor_type;location;lat;lon;timestamp;temperature;humidity
8093;DHT22;4089;52.420;13.334;2023-08-21T07:29:41;24.90;99.90
8093;DHT22;4089;52.420;13.334;2023-08-21T07:32:08;24.90;99.90
8093;DHT22;4089;52.420;13.334;2023-08-21T07:34:35;25.00;99.90
8093;DHT22;4089;52.420;13.334;2023-08-21T07:37:02;25.00;99.90
8093;DHT22;4089;52.420;13.334;2023-08-21T07:39:28;25.00;99.90
8093;DHT22;4089;52.420;13.334;2023-08-21T07:41:55;25.00;99.90
8093;DHT22;4089;52.420;13.334;2023-08-21T07:44:22;25.00;99.90
8093;DHT22;4089;52.420;13.334;2023-08-21T07:46:49;24.90;99.90
8093;DHT22;4089;52.420;13.334;2023-08-21T07:49:15;24.80;99.90
8093;DHT22;4089;52.420;13.334;2023-08-21T07:51:42;24.90;99.90
8093;DHT22;4089;52.420;13.334;2023-08-21T07:54:09;24.90;99.90
8093;DHT22;4089;52.420;13.334;2023-08-21T07:56:37;25.00;99.90
8093;DHT22;4089;52.420;13.334;2023-08-21T07:59:04;25.20;99.90
8093;DHT22;4089;52.420;13.334;2023-08-21T08:01:31;25.40;99.90
8093;DHT22;4089;52.420;13.334;2023-08-21T08:03:59;25.60;99.90
8093;DHT22;4089;52.420;13.334;2023-08-21T08:06:26;25.70;99.90
8093;DHT22;4089;52.420;13.334;2023-08-21T08:08:53;25.70;99.90
8093;DHT22;4089;52.420;13.334;2023-08-21T08:11:20;25.70;99.90
8093;DHT22;4089;52.420;13.334;2023-08-21T08:13:47;25.60;99.90
8093;DHT22;4089;52.420;13.334;2023-08-21T08:16:13;25.60;99.90
8093;DHT22;4089;52.420;13.334;2023-08-21T08:18:40;25.60;99.90
8093;DHT22;4089;52.420;13.334;2023-08-21T08:21:07;25.50;99.90
8093;DHT22;4089;52.420;13.334;2023-08-21T08:23:35;25.50;99.90
8093;DHT22;4089;52.420;13.334;2023-08-21T08:26:02;25.60;99.90
8093;DHT22;4089;52.420;13.334;2023-08-21T08:28:30;25.60;99.90
8093;DHT22;4089;52.420;13.334;2023-08-21T08:30:57;25.60;99.90
8093;DHT22;4089;52.420;13.334;2023-08-21T08:33:24;25.50;99.90
8093;DHT22;4089;52.420;13.334;2023-08-21T08:35:51;25.40;99.90
8093;DHT22;4089;52.420;13.334;2023-08-21T08:38:19;25.30;99.90
8093;DHT22;4089;52.420;13.334;2023-08-21T08:40:47;25.30;99.90
8093;DHT22;4089;52.420;13.334;2023-08-21T08:43:16;25.20;99.90
8093;DHT22;4089;52.420;13.334;2023-08-21T08:45:45;25.20;99.90
8093;DHT22;4089;52.420;13.334;2023-08-21T08:48:15;25.20;99.90
8093;DHT22;4089;52.420;13.334;2023-08-21T08:50:42;25.30;99.90
8093;DHT22;4089;52.420;13.334;2023-08-21T08:53:10;25.40;99.90
8093;DHT22;4089;52.420;13.334;2023-08-21T08:55:42;25.60;99.90
8093;DHT22;4089;52.420;13.334;2023-08-21T08:58:09;25.70;99.90
8093;DHT22;4089;52.420;13.334;2023-08-21T09:00:37;25.80;99.90
8093;DHT22;4089;52.420;13.334;2023-08-21T09:03:04;25.80;99.90
8093;DHT22;4089;52.420;13.334;2023-08-21T09:05:33;25.80;99.90
8093;DHT22;4089;52.420;13.334;2023-08-21T09:08:10;25.80;99.90
8093;DHT22;4089;52.420;13.334;2023-08-21T09:10:38;25.80;99.90
8093;DHT22;4089;52.420;13.334;2023-08-21T09:13:10;25.90;99.90
8093;DHT22;4089;52.420;13.334;2023-08-21T09:15:37;26.10;99.90
8093;DHT22;4089;52.420;13.334;2023-08-21T09:18:11;26.20;99.90
8093;DHT22;4089;52.420;13.334;2023-08-21T09:20:38;26.20;99.90
8093;DHT22;4089;52.420;13.334;2023-08-21T09:23:05;26.30;99.90
8093;DHT22;4089;52.420;13.334;2023-08-21T09:25:38;26.40;99.90
8093;DHT22;4089;52.420;13.334;2023-08-21T09:28:07;26.40;99.90
8093;DHT22;4089;52.420;13.334;2023-08-21T09:30:52;26.40;99.90
8093;DHT22;4089;52.420;13.334;2023-08-21T09:33:20;26.40;99.90
8093;DHT22;4089;52.420;13.334;2023-08-21T09:35:48;26.30;99.90
8093;DHT22;4089;52.420;13.334;2023-08-21T09:38:15;26.50;99.90
8093;DHT22;4089;52.420;13.334;2023-08-21T09:40:44;26.70;99.90
8093;DHT22;4089;52.420;13.334;2023-08-21T09:43:18;26.90;99.90
8093;DHT22;4089;52.420;13.334;2023-08-21T09:45:52;27.00;99.90
8093;DHT22;4089;52.420;13.334;2023-08-21T09:48:22;27.10;99.90
8093;DHT22;4089;52.420;13.334;2023-08-21T09:50:51;27.20;99.90
8093;DHT22;4089;52.420;13.334;2023-08-21T09:53:20;27.20;99.90
8093;DHT22;4089;52.420;13.334;2023-08-21T09:55:51;27.10;99.90
8093;DHT22;4089;52.420;13.334;2023-08-21T09:58:20;27.20;99.90
8093;DHT22;4089;52.420;13.334;2023-08-21T10:00:49;27.20;99.90
8093;DHT22;4089;52.420;13.334;2023-08-21T10:03:20;27.30;99.90
8093;DHT22;4089;52.420;13.334;2023-08-21T10:05:48;27.30;99.90
8093;DHT22;4089;52.420;13.334;2023-08-21T10:08:18;27.20;99.90
8093;DHT22;4089;52.420;13.334;2023-08-21T10:10:47;27.00;99.90
8093;DHT22;4089;52.420;13.334;2023-08-21T10:13:15;27.00;99.90
8093;DHT22;4089;52.420;13.334;2023-08-21T10:15:43;27.00;99.90
8093;DHT22;4089;52.420;13.334;2023-08-21T10:18:23;27.00;99.90
8093;DHT22;4089;52.420;13.334;2023-08-21T10:20:52;26.90;99.90
8093;DHT22;4089;52.420;13.334;2023-08-21T10:23:30;26.90;99.90
8093;DHT22;4089;52.420;13.334;2023-08-21T10:25:59;26.90;99.90
8093;DHT22;4089;52.420;13.334;2023-08-21T10:31:40;27.00;99.90
8093;DHT22;4089;52.420;13.334;2023-08-21T10:34:11;27.10;99.90
8093;DHT22;4089;52.420;13.334;2023-08-21T10:41:40;27.40;99.90
8093;DHT22;4089;52.420;13.334;2023-08-21T10:44:07;27.50;99.90
8093;DHT22;4089;52.420;13.334;2023-08-21T10:46:50;27.60;99.90
8093;DHT22;4089;52.420;13.334;2023-08-21T10:49:17;27.80;99.90
8093;DHT22;4089;52.420;13.334;2023-08-21T10:51:44;27.80;99.90
8093;DHT22;4089;52.420;13.334;2023-08-21T10:54:13;27.70;99.90
8093;DHT22;4089;52.420;13.334;2023-08-21T10:56:40;27.60;99.90
8093;DHT22;4089;52.420;13.334;2023-08-21T10:59:07;27.60;99.90
8093;DHT22;4089;52.420;13.334;2023-08-21T11:01:44;27.60;99.90
8093;DHT22;4089;52.420;13.334;2023-08-21T11:04:12;27.80;99.40
8093;DHT22;4089;52.420;13.334;2023-08-21T11:06:39;27.90;99.70
8093;DHT22;4089;52.420;13.334;2023-08-21T11:09:13;27.90;99.70
8093;DHT22;4089;52.420;13.334;2023-08-21T11:11:39;27.80;99.10
8093;DHT22;4089;52.420;13.334;2023-08-21T11:14:06;27.70;98.90
8093;DHT22;4089;52.420;13.334;2023-08-21T11:16:33;27.70;99.90
8093;DHT22;4089;52.420;13.334;2023-08-21T11:19:03;27.60;99.90
8093;DHT22;4089;52.420;13.334;2023-08-21T11:21:31;27.70;99.10
8093;DHT22;4089;52.420;13.334;2023-08-21T11:23:58;27.70;99.80
8093;DHT22;4089;52.420;13.334;2023-08-21T11:26:25;27.70;99.50
8093;DHT22;4089;52.420;13.334;2023-08-21T11:28:52;27.80;99.90
8093;DHT22;4089;52.420;13.334;2023-08-21T11:31:19;28.10;99.90
8093;DHT22;4089;52.420;13.334;2023-08-21T11:33:50;28.30;99.90
8093;DHT22;4089;52.420;13.334;2023-08-21T11:36:18;28.50;99.90
8093;DHT22;4089;52.420;13.334;2023-08-21T11:39:01;28.60;99.90
8093;DHT22;4089;52.420;13.334;2023-08-21T11:41:30;28.80;99.90
8093;DHT22;4089;52.420;13.334;2023-08-21T11:44:03;28.70;99.30
8093;DHT22;4089;52.420;13.334;2023-08-21T11:46:35;28.60;98.30
8093;DHT22;4089;52.420;13.334;2023-08-21T11:49:01;28.50;98.30
8093;DHT22;4089;52.420;13.334;2023-08-21T11:51:28;28.60;98.30
8093;DHT22;4089;52.420;13.334;2023-08-21T11:53:55;28.70;98.20
8093;DHT22;4089;52.420;13.334;2023-08-21T11:56:28;28.80;99.10
8093;DHT22;4089;52.420;13.334;2023-08-21T11:58:55;28.60;97.50
8093;DHT22;4089;52.420;13.334;2023-08-21T12:01:22;28.70;98.00
8093;DHT22;4089;52.420;13.334;2023-08-21T12:03:49;28.80;99.10
8093;DHT22;4089;52.420;13.334;2023-08-21T12:06:23;28.90;97.10
8093;DHT22;4089;52.420;13.334;2023-08-21T12:08:52;28.90;97.00
8093;DHT22;4089;52.420;13.334;2023-08-21T12:11:19;28.60;96.90
8093;DHT22;4089;52.420;13.334;2023-08-21T12:13:48;28.50;97.60
8093;DHT22;4089;52.420;13.334;2023-08-21T12:16:14;28.60;98.40
8093;DHT22;4089;52.420;13.334;2023-08-21T12:18:41;28.60;99.10
8093;DHT22;4089;52.420;13.334;2023-08-21T12:21:08;28.60;98.70
8093;DHT22;4089;52.420;13.334;2023-08-21T12:23:35;28.70;98.70
8093;DHT22;4089;52.420;13.334;2023-08-21T12:26:02;28.70;98.90
8093;DHT22;4089;52.420;13.334;2023-08-21T12:28:29;28.60;98.70
8093;DHT22;4089;52.420;13.334;2023-08-21T12:30:57;28.40;98.90
8093;DHT22;4089;52.420;13.334;2023-08-21T12:33:23;28.10;99.40
8093;DHT22;4089;52.420;13.334;2023-08-21T12:35:50;28.10;99.60
8093;DHT22;4089;52.420;13.334;2023-08-21T12:38:18;28.20;99.70
8093;DHT22;4089;52.420;13.334;2023-08-21T12:40:44;28.00;98.30
8093;DHT22;4089;52.420;13.334;2023-08-21T12:43:11;27.80;98.70
8093;DHT22;4089;52.420;13.334;2023-08-21T12:45:38;27.80;98.80
8093;DHT22;4089;52.420;13.334;2023-08-21T12:48:05;27.80;99.50
8093;DHT22;4089;52.420;13.334;2023-08-21T12:50:32;27.90;99.90
8093;DHT22;4089;52.420;13.334;2023-08-21T12:53:00;28.00;98.40
8093;DHT22;4089;52.420;13.334;2023-08-21T12:55:28;28.00;98.20
8093;DHT22;4089;52.420;13.334;2023-08-21T12:57:56;28.10;99.20
8093;DHT22;4089;52.420;13.334;2023-08-21T13:00:23;27.90;97.90
8093;DHT22;4089;52.420;13.334;2023-08-21T13:02:50;27.90;97.40
8093;DHT22;4089;52.420;13.334;2023-08-21T13:05:17;27.90;96.40
8093;DHT22;4089;52.420;13.334;2023-08-21T13:07:44;27.90;97.10
8093;DHT22;4089;52.420;13.334;2023-08-21T13:10:10;28.10;98.30
8093;DHT22;4089;52.420;13.334;2023-08-21T13:12:37;28.20;97.90
8093;DHT22;4089;52.420;13.334;2023-08-21T13:15:05;28.20;96.30
8093;DHT22;4089;52.420;13.334;2023-08-21T13:17:34;28.20;97.10
8093;DHT22;4089;52.420;13.334;2023-08-21T13:20:02;28.20;96.50
8093;DHT22;4089;52.420;13.334;2023-08-21T13:22:44;28.30;97.70
8093;DHT22;4089;52.420;13.334;2023-08-21T13:25:11;28.30;97.10
8093;DHT22;4089;52.420;13.334;2023-08-21T13:27:38;28.30;99.10
8093;DHT22;4089;52.420;13.334;2023-08-21T13:30:06;28.30;97.70
8093;DHT22;4089;52.420;13.334;2023-08-21T13:32:32;28.50;98.60
8093;DHT22;4089;52.420;13.334;2023-08-21T13:34:59;28.60;97.20
8093;DHT22;4089;52.420;13.334;2023-08-21T13:37:26;28.60;97.00
8093;DHT22;4089;52.420;13.334;2023-08-21T13:39:54;28.50;97.20
8093;DHT22;4089;52.420;13.334;2023-08-21T13:42:21;28.40;97.90
8093;DHT22;4089;52.420;13.334;2023-08-21T13:44:48;28.40;98.00
8093;DHT22;4089;52.420;13.334;2023-08-21T13:47:15;28.30;95.60
8093;DHT22;4089;52.420;13.334;2023-08-21T13:49:42;28.20;96.20
8093;DHT22;4089;52.420;13.334;2023-08-21T13:52:09;28.10;96.60
8093;DHT22;4089;52.420;13.334;2023-08-21T13:54:35;28.00;96.20
8093;DHT22;4089;52.420;13.334;2023-08-21T13:57:02;28.00;97.00
8093;DHT22;4089;52.420;13.334;2023-08-21T13:59:30;28.10;98.10
8093;DHT22;4089;52.420;13.334;2023-08-21T14:01:57;28.20;96.70
8093;DHT22;4089;52.420;13.334;2023-08-21T14:04:23;28.10;95.80
8093;DHT22;4089;52.420;13.334;2023-08-21T14:06:51;28.10;96.20
8093;DHT22;4089;52.420;13.334;2023-08-21T14:09:17;28.20;95.00
8093;DHT22;4089;52.420;13.334;2023-08-21T14:11:45;28.10;94.30
8093;DHT22;4089;52.420;13.334;2023-08-21T14:14:12;28.20;95.10
8093;DHT22;4089;52.420;13.334;2023-08-21T14:16:39;28.20;95.80
8093;DHT22;4089;52.420;13.334;2023-08-21T14:19:05;28.30;94.40
8093;DHT22;4089;52.420;13.334;2023-08-21T14:21:32;28.30;94.50
8093;DHT22;4089;52.420;13.334;2023-08-21T14:23:59;28.60;94.10
8093;DHT22;4089;52.420;13.334;2023-08-21T14:26:26;28.80;94.50
8093;DHT22;4089;52.420;13.334;2023-08-21T14:28:52;29.00;94.60
8093;DHT22;4089;52.420;13.334;2023-08-21T14:31:19;29.20;93.90
8093;DHT22;4089;52.420;13.334;2023-08-21T14:33:46;29.40;94.20
8093;DHT22;4089;52.420;13.334;2023-08-21T14:36:13;29.40;93.60
8093;DHT22;4089;52.420;13.334;2023-08-21T14:38:40;29.60;93.80
8093;DHT22;4089;52.420;13.334;2023-08-21T14:41:07;29.50;93.60
8093;DHT22;4089;52.420;13.334;2023-08-21T14:43:33;29.60;94.10
8093;DHT22;4089;52.420;13.334;2023-08-21T14:46:00;29.80;94.40
8093;DHT22;4089;52.420;13.334;2023-08-21T14:48:27;30.00;94.00
8093;DHT22;4089;52.420;13.334;2023-08-21T14:50:54;30.00;94.30
8093;DHT22;4089;52.420;13.334;2023-08-21T14:53:20;30.10;93.90
8093;DHT22;4089;52.420;13.334;2023-08-21T14:55:48;30.00;93.90
8093;DHT22;4089;52.420;13.334;2023-08-21T14:58:15;29.90;93.60
8093;DHT22;4089;52.420;13.334;2023-08-21T15:00:42;29.80;94.10
8093;DHT22;4089;52.420;13.334;2023-08-21T15:03:09;29.70;94.40
8093;DHT22;4089;52.420;13.334;2023-08-21T15:05:36;29.40;95.30
8093;DHT22;4089;52.420;13.334;2023-08-21T15:08:03;29.30;94.80
8093;DHT22;4089;52.420;13.334;2023-08-21T15:10:30;29.20;94.90
8093;DHT22;4089;52.420;13.334;2023-08-21T15:12:57;29.10;95.00
8093;DHT22;4089;52.420;13.334;2023-08-21T15:15:23;28.80;94.80
8093;DHT22;4089;52.420;13.334;2023-08-21T15:17:51;28.50;94.90
8093;DHT22;4089;52.420;13.334;2023-08-21T15:20:18;28.20;95.50
8093;DHT22;4089;52.420;13.334;2023-08-21T15:22:45;28.30;95.80
8093;DHT22;4089;52.420;13.334;2023-08-21T15:25:12;28.20;96.10
8093;DHT22;4089;52.420;13.334;2023-08-21T15:27:39;28.40;96.80
8093;DHT22;4089;52.420;13.334;2023-08-21T15:30:07;28.50;96.00
8093;DHT22;4089;52.420;13.334;2023-08-21T15:32:34;28.70;95.30
8093;DHT22;4089;52.420;13.334;2023-08-21T15:35:01;28.80;96.10
8093;DHT22;4089;52.420;13.334;2023-08-21T15:37:31;28.80;95.20
8093;DHT22;4089;52.420;13.334;2023-08-21T15:39:58;28.70;95.40
8093;DHT22;4089;52.420;13.334;2023-08-21T15:42:25;28.40;95.60
8093;DHT22;4089;52.420;13.334;2023-08-21T15:44:52;28.30;95.20
8093;DHT22;4089;52.420;13.334;2023-08-21T15:47:18;28.30;95.70
8093;DHT22;4089;52.420;13.334;2023-08-21T15:50:06;28.30;95.90
8093;DHT22;4089;52.420;13.334;2023-08-21T15:52:34;28.10;95.90
8093;DHT22;4089;52.420;13.334;2023-08-21T15:55:00;28.10;95.80
8093;DHT22;4089;52.420;13.334;2023-08-21T15:57:27;27.90;95.40
8093;DHT22;4089;52.420;13.334;2023-08-21T15:59:54;27.90;96.10
8093;DHT22;4089;52.420;13.334;2023-08-21T16:02:21;28.00;95.70
8093;DHT22;4089;52.420;13.334;2023-08-21T16:04:48;28.20;95.90
8093;DHT22;4089;52.420;13.334;2023-08-21T16:07:14;28.20;95.80
8093;DHT22;4089;52.420;13.334;2023-08-21T16:09:41;28.00;95.80
8093;DHT22;4089;52.420;13.334;2023-08-21T16:12:08;27.90;96.00
8093;DHT22;4089;52.420;13.334;2023-08-21T16:14:35;27.80;96.60
8093;DHT22;4089;52.420;13.334;2023-08-21T16:17:02;27.80;97.10
8093;DHT22;4089;52.420;13.334;2023-08-21T16:19:29;27.70;96.70
8093;DHT22;4089;52.420;13.334;2023-08-21T16:21:56;27.50;96.70
8093;DHT22;4089;52.420;13.334;2023-08-21T16:24:22;27.40;96.60
8093;DHT22;4089;52.420;13.334;2023-08-21T16:26:49;27.20;97.10
8093;DHT22;4089;52.420;13.334;2023-08-21T16:29:16;27.20;97.30
8093;DHT22;4089;52.420;13.334;2023-08-21T16:31:45;27.40;97.80
8093;DHT22;4089;52.420;13.334;2023-08-21T16:34:11;27.40;96.90
8093;DHT22;4089;52.420;13.334;2023-08-21T16:36:40;27.30;97.50
8093;DHT22;4089;52.420;13.334;2023-08-21T16:39:06;27.20;97.60
